Time;durP1;ratioP1;P1;durP2;ratioP2;P2;SDS_P1;SDS_P2;PMS_P1;PMS_P2;Temp;Humidity;BMP_temperature;BMP_pressure;BME280_temperature;BME280_humidity;BME280_pressure;Samples;Min_cycle;Max_cycle;Signal;HPM_P1;HPM_P2
2020/12/11 00:04:17;;;;;;;6.47;3.58;;;;;;;5.74;100.00;93806.50;10499249;28;20032;-77
2020/12/11 00:09:17;;;;;;;7.77;5.37;;;;;;;5.55;100.00;93813.41;10482151;28;20040;-77
2020/12/11 00:14:19;;;;;;;10.70;4.93;;;;;;;5.43;100.00;93811.78;10507921;28;20297;-77
2020/12/11 00:19:19;;;;;;;12.02;5.50;;;;;;;5.47;100.00;93809.41;10526733;28;20094;-77
2020/12/11 00:24:20;;;;;;;7.85;5.22;;;;;;;5.34;100.00;93823.22;10510211;28;20043;-77
2020/12/11 00:29:20;;;;;;;12.00;6.37;;;;;;;5.42;100.00;93820.03;10529403;28;20028;-77
2020/12/11 00:34:21;;;;;;;11.38;5.68;;;;;;;5.43;100.00;93827.78;10528337;28;20653;-77
2020/12/11 00:39:21;;;;;;;11.15;6.18;;;;;;;5.45;100.00;93824.84;10529095;28;20055;-77
2020/12/11 00:44:22;;;;;;;12.63;6.85;;;;;;;5.44;100.00;93834.72;10537655;28;20043;-77
2020/12/11 00:49:23;;;;;;;10.45;6.13;;;;;;;5.42;100.00;93839.47;10528503;28;20028;-77
2020/12/11 00:54:24;;;;;;;15.90;8.43;;;;;;;5.35;100.00;93836.28;10528825;28;20039;-78
2020/12/11 00:59:24;;;;;;;19.13;10.15;;;;;;;5.36;100.00;93831.72;10505735;28;20480;-78
2020/12/11 01:04:24;;;;;;;23.95;14.10;;;;;;;5.27;100.00;93829.59;10486117;28;20713;-78
2020/12/11 01:09:25;;;;;;;27.35;15.88;;;;;;;5.28;100.00;93836.50;10486928;28;20036;-78
2020/12/11 01:14:25;;;;;;;15.10;7.63;;;;;;;5.12;100.00;93835.69;10486998;28;20041;-78
2020/12/11 01:19:26;;;;;;;17.17;7.10;;;;;;;5.11;100.00;93839.38;10487607;28;20037;-78
2020/12/11 01:24:26;;;;;;;16.15;8.32;;;;;;;5.01;100.00;93830.56;10493751;28;20157;-78
2020/12/11 01:29:26;;;;;;;25.57;13.30;;;;;;;5.12;100.00;93824.19;10493251;28;20047;-78
2020/12/11 01:34:27;;;;;;;24.45;11.88;;;;;;;5.09;100.00;93828.22;10499552;28;20342;-77
2020/12/11 01:39:27;;;;;;;16.02;8.20;;;;;;;5.06;100.00;93831.38;10536002;28;20036;-76
2020/12/11 01:44:28;;;;;;;12.40;6.70;;;;;;;4.94;100.00;93831.59;10536395;28;20044;-77
2020/12/11 01:49:29;;;;;;;7.97;5.60;;;;;;;4.95;100.00;93822.56;10536410;28;20040;-78
2020/12/11 01:54:30;;;;;;;11.88;5.45;;;;;;;5.06;100.00;93814.59;10535670;28;20028;-77
2020/12/11 01:59:39;;;;;;;11.70;4.82;;;;;;;4.90;100.00;93816.41;10535589;28;20044;-77
2020/12/11 02:04:40;;;;;;;10.55;4.80;;;;;;;4.94;100.00;93815.63;10534853;28;20044;-77
2020/12/11 02:09:41;;;;;;;9.95;6.45;;;;;;;4.72;100.00;93823.78;10535428;28;20459;-77
2020/12/11 02:14:42;;;;;;;14.98;8.73;;;;;;;4.82;100.00;93815.03;10533911;28;20113;-78
2020/12/11 02:19:42;;;;;;;17.37;8.43;;;;;;;4.96;100.00;93818.03;10526015;28;20091;-78
2020/12/11 02:24:43;;;;;;;12.52;7.80;;;;;;;5.02;100.00;93818.84;10490676;28;20040;-78
2020/12/11 02:29:44;;;;;;;9.45;5.90;;;;;;;5.13;100.00;93809.81;10489316;28;20033;-77
2020/12/11 02:34:45;;;;;;;15.15;5.78;;;;;;;5.16;100.00;93817.28;10496831;28;20042;-77
2020/12/11 02:39:46;;;;;;;12.52;6.00;;;;;;;5.16;100.00;93821.81;10531280;28;20032;-77
2020/12/11 02:44:46;;;;;;;11.52;7.18;;;;;;;5.22;100.00;93813.59;10513437;28;20506;-77
2020/12/11 02:49:47;;;;;;;11.73;6.80;;;;;;;5.30;100.00;93818.41;10531898;28;20066;-77
2020/12/11 02:54:47;;;;;;;11.43;6.68;;;;;;;5.35;100.00;93822.16;10497785;28;20235;-77
2020/12/11 02:59:48;;;;;;;9.00;5.50;;;;;;;5.33;100.00;93814.44;10489446;28;20040;-77
2020/12/11 03:04:48;;;;;;;10.73;4.40;;;;;;;5.30;100.00;93820.25;10488972;28;20067;-77
2020/12/11 03:09:48;;;;;;;8.55;5.18;;;;;;;5.35;100.00;93822.16;10488937;28;20445;-76
2020/12/11 03:14:49;;;;;;;6.22;3.83;;;;;;;5.27;100.00;93826.94;10465597;28;655463;-76
2020/12/11 03:19:50;;;;;;;8.23;4.23;;;;;;;5.22;100.00;93821.59;10506505;28;20036;-77
2020/12/11 03:24:51;;;;;;;5.90;3.70;;;;;;;4.99;100.00;93830.81;10490043;28;20294;-77
2020/12/11 03:29:51;;;;;;;5.10;3.10;;;;;;;4.85;100.00;93833.16;10489782;28;20036;-76
2020/12/11 03:34:52;;;;;;;8.35;4.30;;;;;;;4.86;100.00;93834.75;10498409;28;20443;-76
2020/12/11 03:39:52;;;;;;;8.65;4.28;;;;;;;5.01;100.00;93842.03;10531204;28;20098;-77
2020/12/11 03:44:52;;;;;;;6.68;3.72;;;;;;;5.13;100.00;93855.94;10511452;28;20165;-77
2020/12/11 03:49:53;;;;;;;6.73;4.13;;;;;;;5.16;100.00;93861.78;10531299;28;20032;-77
2020/12/11 03:54:53;;;;;;;9.63;5.78;;;;;;;5.29;100.00;93864.75;10530266;28;20598;-77
2020/12/11 03:59:54;;;;;;;6.88;4.15;;;;;;;5.27;100.00;93872.22;10530777;28;20050;-77
2020/12/11 04:04:54;;;;;;;9.50;5.07;;;;;;;5.33;100.00;93857.06;10512170;28;20445;-77
2020/12/11 04:09:54;;;;;;;7.45;4.95;;;;;;;5.29;100.00;93871.97;10530424;28;20035;-77
2020/12/11 04:14:55;;;;;;;10.82;5.28;;;;;;;5.39;100.00;93879.97;10528984;28;20043;-77
2020/12/11 04:19:55;;;;;;;8.15;5.28;;;;;;;5.43;100.00;93889.06;10511275;28;20130;-77
2020/12/11 04:24:56;;;;;;;16.73;7.43;;;;;;;5.20;100.00;93884.97;10528418;28;20097;-77
2020/12/11 04:29:56;;;;;;;15.77;8.05;;;;;;;5.10;100.00;93895.59;10527571;28;20356;-77
2020/12/11 04:34:57;;;;;;;19.10;9.73;;;;;;;5.03;100.00;93900.34;10528613;28;20028;-77
2020/12/11 04:39:57;;;;;;;23.63;12.03;;;;;;;4.89;100.00;93898.13;10528717;28;20293;-77
2020/12/11 04:44:58;;;;;;;23.77;14.50;;;;;;;4.79;100.00;93901.53;10566585;28;20293;-77
2020/12/11 04:49:58;;;;;;;23.65;14.35;;;;;;;4.73;100.00;93901.75;10570621;28;20070;-75
2020/12/11 04:54:59;;;;;;;27.13;14.27;;;;;;;4.85;100.00;93907.69;10571973;28;20035;-76
2020/12/11 04:59:59;;;;;;;20.50;12.30;;;;;;;4.95;100.00;93905.09;10569200;28;20027;-77
2020/12/11 05:05:00;;;;;;;19.33;12.65;;;;;;;5.14;100.00;93894.00;10569325;28;20042;-77
2020/12/11 05:10:01;;;;;;;20.58;12.43;;;;;;;5.25;100.00;93900.19;10569539;28;20489;-76
2020/12/11 05:15:05;;;;;;;18.45;12.02;;;;;;;5.29;100.00;93910.06;10526977;28;20457;-77
2020/12/11 05:20:08;;;;;;;25.90;14.05;;;;;;;5.10;100.00;93915.03;10527170;28;20491;-76
2020/12/11 05:25:13;;;;;;;24.77;13.75;;;;;;;5.29;100.00;93906.59;10499397;28;20148;-76
2020/12/11 05:30:13;;;;;;;24.92;14.25;;;;;;;5.21;100.00;93913.22;10504506;28;20040;-76
2020/12/11 05:35:17;;;;;;;23.43;15.37;;;;;;;5.31;100.00;93915.91;10527079;28;20024;-76
2020/12/11 05:40:39;;;;;;;22.98;13.13;;;;;;;5.29;100.00;93927.91;10526942;28;20024;-74
2020/12/11 05:45:48;;;;;;;26.35;14.95;;;;;;;5.39;100.00;93933.28;10526504;28;20475;-74
2020/12/11 05:50:49;;;;;;;27.95;14.95;;;;;;;5.51;100.00;93935.69;10508372;28;20032;-74
2020/12/11 05:55:50;;;;;;;26.60;14.10;;;;;;;5.57;100.00;93945.34;10526616;28;20021;-74
2020/12/11 06:00:51;;;;;;;25.20;14.52;;;;;;;5.70;100.00;93953.91;10526142;28;20032;-74
2020/12/11 06:05:56;;;;;;;22.52;13.45;;;;;;;5.75;100.00;93956.56;10525961;28;20043;-74
2020/12/11 06:11:01;;;;;;;25.92;14.88;;;;;;;5.75;100.00;93967.25;10532209;28;20068;-74
2020/12/11 06:16:04;;;;;;;33.22;17.70;;;;;;;5.71;100.00;93982.19;10533254;28;20102;-74
2020/12/11 06:21:05;;;;;;;29.73;17.42;;;;;;;5.81;100.00;93969.66;10531133;28;20032;-74
2020/12/11 06:26:06;;;;;;;30.08;17.00;;;;;;;5.92;100.00;93970.50;10532388;28;20145;-74
2020/12/11 06:31:13;;;;;;;33.35;18.45;;;;;;;5.97;100.00;93975.03;10532462;28;20145;-74
2020/12/11 06:36:14;;;;;;;36.70;20.85;;;;;;;5.94;100.00;93975.56;10532232;28;20518;-74
2020/12/11 06:41:35;;;;;;;35.75;21.33;;;;;;;6.15;100.00;93966.59;10514560;28;20143;-74
2020/12/11 06:46:36;;;;;;;33.50;18.38;;;;;;;6.00;100.00;93971.91;10514621;28;20028;-74
2020/12/11 06:51:42;;;;;;;29.83;17.02;;;;;;;6.04;100.00;93962.31;10489712;28;20047;-74
2020/12/11 06:56:44;;;;;;;30.40;18.20;;;;;;;5.80;100.00;93964.59;10490253;28;20033;-74
2020/12/11 07:01:45;;;;;;;31.92;19.08;;;;;;;5.99;100.00;93975.63;10490616;28;20036;-74
2020/12/11 07:06:50;;;;;;;31.75;18.25;;;;;;;6.12;100.00;93977.00;10490113;28;20052;-74
2020/12/11 07:11:50;;;;;;;31.98;18.25;;;;;;;6.20;100.00;93983.69;10489865;28;20029;-74
2020/12/11 07:16:51;;;;;;;47.45;27.33;;;;;;;6.24;100.00;93985.56;10518192;28;20074;-74
2020/12/11 07:21:54;;;;;;;38.25;23.73;;;;;;;6.34;100.00;93982.09;10531943;28;20481;-75
2020/12/11 07:27:04;;;;;;;28.83;16.50;;;;;;;6.52;100.00;93978.13;10513105;28;20032;-75
2020/12/11 07:32:05;;;;;;;30.75;19.17;;;;;;;6.72;100.00;93981.84;10531341;28;20032;-75
2020/12/11 07:37:05;;;;;;;32.53;20.63;;;;;;;6.76;100.00;93989.06;10531123;28;20024;-75
2020/12/11 07:42:08;;;;;;;33.77;19.50;;;;;;;6.94;100.00;93982.38;10516579;28;20072;-74
2020/12/11 07:47:12;;;;;;;25.25;13.80;;;;;;;6.95;100.00;93983.97;10505511;28;20287;-74
2020/12/11 07:52:22;;;;;;;32.97;17.00;;;;;;;7.19;100.00;93970.06;10522794;28;20046;-73
2020/12/11 07:57:23;;;;;;;29.10;16.30;;;;;;;7.40;100.00;93975.38;10520742;28;20020;-74
2020/12/11 08:02:24;;;;;;;39.10;18.55;;;;;;;7.39;100.00;93982.56;10511785;28;20040;-74
2020/12/11 08:07:29;;;;;;;31.10;17.17;;;;;;;7.35;100.00;93992.19;10510818;28;20040;-73
2020/12/11 08:12:29;;;;;;;30.20;15.10;;;;;;;7.44;100.00;94003.16;10498539;28;20039;-73
2020/12/11 08:17:31;;;;;;;38.92;17.33;;;;;;;7.91;100.00;93995.75;10500835;28;20065;-75
2020/12/11 08:22:41;;;;;;;25.60;16.50;;;;;;;8.39;100.00;93994.16;10494715;28;20032;-73
2020/12/11 08:27:42;;;;;;;43.75;23.55;;;;;;;8.53;100.00;93989.00;10512118;28;20528;-73
2020/12/11 08:32:44;;;;;;;41.08;24.00;;;;;;;8.76;100.00;93983.22;10495963;28;20085;-73
2020/12/11 08:37:51;;;;;;;43.15;24.55;;;;;;;9.43;100.00;93979.94;10504537;28;20067;-73
2020/12/11 08:53:24;;;;;;;39.70;23.90;;;;;;;9.85;100.00;93989.97;10502292;28;20032;-74
2020/12/11 08:58:24;;;;;;;48.00;26.38;;;;;;;9.69;100.00;93986.63;10506163;28;20281;-73
2020/12/11 09:03:25;;;;;;;47.23;25.03;;;;;;;9.50;100.00;93975.88;10494949;28;20047;-74
2020/12/11 09:08:26;;;;;;;42.47;25.92;;;;;;;9.46;100.00;93976.69;10487464;28;20422;-74
2020/12/11 09:13:26;;;;;;;40.40;23.67;;;;;;;9.16;100.00;93975.94;10487272;28;20067;-74
2020/12/11 09:18:26;;;;;;;57.40;31.30;;;;;;;8.74;100.00;93988.09;10469003;28;20074;-73
2020/12/11 09:23:27;;;;;;;50.03;29.77;;;;;;;8.47;100.00;93986.66;10502808;28;20291;-73
2020/12/11 09:28:27;;;;;;;49.78;28.58;;;;;;;8.37;100.00;93972.22;10487167;28;20032;-74
2020/12/11 09:33:30;;;;;;;50.57;25.43;;;;;;;8.39;100.00;93966.59;10487336;28;20037;-74
2020/12/11 09:38:31;;;;;;;49.10;22.27;;;;;;;9.06;100.00;93961.53;10486710;28;20913;-74
2020/12/11 09:54:23;;;;;;;34.53;20.83;;;;;;;8.52;100.00;93949.13;10460925;28;20044;-73
2020/12/11 09:59:46;;;;;;;43.70;22.40;;;;;;;8.14;100.00;93948.81;10493848;28;20116;-74
2020/12/11 10:04:47;;;;;;;43.97;23.95;;;;;;;8.34;100.00;93942.53;10493888;28;20036;-74
2020/12/11 10:09:48;;;;;;;35.72;21.05;;;;;;;8.77;100.00;93945.44;10476093;28;20041;-75
2020/12/11 10:14:53;;;;;;;35.65;19.65;;;;;;;9.18;100.00;93945.09;10493373;28;20048;-75
2020/12/11 10:19:54;;;;;;;32.10;18.13;;;;;;;9.53;100.00;93932.38;10495469;28;20059;-74
2020/12/11 10:24:54;;;;;;;35.55;19.27;;;;;;;10.62;100.00;93921.00;10493701;28;20396;-74
2020/12/11 10:29:54;;;;;;;30.20;17.42;;;;;;;10.18;100.00;93922.94;10475477;28;20511;-74
2020/12/11 10:34:55;;;;;;;33.30;18.40;;;;;;;9.41;100.00;93913.97;10496079;28;20167;-75
2020/12/11 10:39:55;;;;;;;34.67;19.87;;;;;;;9.85;100.00;93914.00;10492894;28;20047;-75
2020/12/11 10:44:56;;;;;;;37.90;17.60;;;;;;;10.88;100.00;93901.75;10474658;28;20705;-74
2020/12/11 10:49:56;;;;;;;34.00;19.50;;;;;;;10.67;100.00;93896.72;10507568;28;20036;-74
2020/12/11 10:54:56;;;;;;;40.17;20.63;;;;;;;10.47;100.00;93889.00;10491551;28;20298;-74
2020/12/11 10:59:57;;;;;;;38.38;20.65;;;;;;;10.14;100.00;93878.97;10492169;28;20076;-77
2020/12/11 11:04:59;;;;;;;37.83;21.05;;;;;;;10.00;100.00;93872.75;10501353;28;20166;-76
2020/12/11 11:30:37;;;;;;;34.57;20.03;;;;;;;9.36;100.00;93870.34;10500517;28;20493;-74
2020/12/11 11:35:37;;;;;;;39.78;20.75;;;;;;;9.13;100.00;93861.25;10490399;28;20495;-75
2020/12/11 11:40:39;;;;;;;42.13;20.50;;;;;;;8.53;100.00;93851.66;10498840;28;20032;-76
2020/12/11 11:45:40;;;;;;;43.85;21.63;;;;;;;9.09;100.00;93836.88;10489092;28;20111;-75
2020/12/11 11:50:55;;;;;;;32.42;19.13;;;;;;;9.67;100.00;93845.81;10489852;28;20046;-75
2020/12/11 11:55:56;;;;;;;41.40;21.52;;;;;;;9.71;100.00;93844.97;10489269;28;20036;-75
2020/12/11 12:00:56;;;;;;;40.13;21.13;;;;;;;9.63;100.00;93853.66;10489680;28;20032;-75
2020/12/11 12:05:57;;;;;;;35.50;20.10;;;;;;;9.48;100.00;93837.75;10480020;28;20126;-75
2020/12/11 12:10:58;;;;;;;34.17;20.13;;;;;;;9.44;100.00;93840.19;10490217;28;20040;-75
2020/12/11 12:15:58;;;;;;;38.40;22.85;;;;;;;9.29;100.00;93825.09;10488374;28;20052;-75
2020/12/11 12:21:04;;;;;;;42.75;21.52;;;;;;;9.43;100.00;93838.59;10527642;28;20044;-76
2020/12/11 12:31:40;;;;;;;35.53;19.85;;;;;;;9.33;100.00;93807.34;10530269;28;20075;-75
2020/12/11 12:42:37;;;;;;;33.67;17.42;;;;;;;9.05;100.00;93817.88;10530156;28;20036;-76
2020/12/11 12:47:38;;;;;;;39.70;19.10;;;;;;;8.84;100.00;93819.19;10487778;28;20489;-74
2020/12/11 12:52:39;;;;;;;44.55;21.13;;;;;;;8.86;100.00;93819.69;10486422;28;20060;-74
2020/12/11 12:58:00;;;;;;;37.63;19.75;;;;;;;9.04;100.00;93823.53;10520199;28;20497;-74
2020/12/11 13:08:07;;;;;;;45.67;21.00;;;;;;;8.63;100.00;93819.41;10487332;28;20041;-74
2020/12/11 13:13:09;;;;;;;38.95;17.75;;;;;;;8.86;100.00;93819.69;10487049;28;20487;-74
2020/12/11 13:18:09;;;;;;;36.63;19.25;;;;;;;8.75;100.00;93818.22;10486718;28;20049;-75
2020/12/11 13:28:13;;;;;;;39.80;19.90;;;;;;;8.72;100.00;93807.00;10454050;28;20037;-76
2020/12/11 13:33:13;;;;;;;36.05;17.50;;;;;;;8.51;100.00;93808.28;10453815;28;20066;-75
2020/12/11 13:38:14;;;;;;;32.60;15.73;;;;;;;8.29;100.00;93817.56;10453508;28;20033;-75
2020/12/11 13:43:14;;;;;;;27.02;15.63;;;;;;;8.05;100.00;93814.78;10453082;28;20052;-74
2020/12/11 13:48:15;;;;;;;32.20;18.13;;;;;;;8.08;100.00;93811.56;10453405;28;20793;-74
2020/12/11 13:53:15;;;;;;;38.38;19.27;;;;;;;8.10;100.00;93816.66;10468281;28;20382;-74
2020/12/11 13:58:17;;;;;;;36.63;18.80;;;;;;;7.97;100.00;93826.91;10488991;28;20066;-74
2020/12/11 14:03:17;;;;;;;38.35;18.95;;;;;;;7.77;100.00;93816.34;10485875;28;20060;-75
2020/12/11 14:08:18;;;;;;;31.23;18.33;;;;;;;7.68;100.00;93819.59;10455647;28;20547;-75
2020/12/11 14:13:18;;;;;;;38.05;19.00;;;;;;;7.48;100.00;93823.22;10452434;28;20032;-74
2020/12/11 14:18:36;;;;;;;37.53;18.23;;;;;;;7.55;100.00;93822.09;10489895;28;20045;-75
2020/12/11 14:23:37;;;;;;;31.83;18.97;;;;;;;7.51;100.00;93816.50;10493437;28;20298;-75
2020/12/11 14:28:37;;;;;;;35.47;18.40;;;;;;;7.45;100.00;93812.25;10492461;28;20039;-75
2020/12/11 14:33:37;;;;;;;32.30;17.67;;;;;;;7.36;100.00;93798.66;10492600;28;20503;-75
2020/12/11 14:43:41;;;;;;;37.55;17.70;;;;;;;7.22;100.00;93793.13;10493813;28;20033;-78
2020/12/11 14:48:42;;;;;;;41.78;19.83;;;;;;;7.07;100.00;93796.66;10507335;28;20044;-77
2020/12/11 14:53:43;;;;;;;41.15;21.20;;;;;;;6.94;100.00;93803.41;10515307;28;20038;-77
2020/12/11 14:58:43;;;;;;;38.95;20.48;;;;;;;6.73;100.00;93792.00;10495346;28;20137;-77
2020/12/11 15:03:44;;;;;;;47.53;22.53;;;;;;;6.53;100.00;93800.88;10515006;28;20149;-77
2020/12/11 15:14:13;;;;;;;;;;;;;;;6.38;100.00;93798.22;10530341;28;20426;-77
2020/12/11 15:19:14;;;;;;;55.35;25.83;;;;;;;6.45;100.00;93793.41;10530074;28;19920;-76
2020/12/11 15:24:16;;;;;;;46.92;23.25;;;;;;;6.36;100.00;93795.03;10506226;28;20415;-76
2020/12/11 15:29:16;;;;;;;48.70;23.98;;;;;;;6.08;100.00;93807.84;10510308;28;20040;-76
2020/12/11 15:34:17;;;;;;;45.53;22.60;;;;;;;5.97;100.00;93805.19;10507322;28;20028;-74
2020/12/11 15:39:18;;;;;;;49.40;23.45;;;;;;;5.87;100.00;93815.81;10501162;28;20020;-73
2020/12/11 15:44:18;;;;;;;42.00;22.13;;;;;;;5.91;100.00;93805.44;10508579;28;20249;-74
2020/12/11 15:49:19;;;;;;;37.33;21.13;;;;;;;5.82;100.00;93803.28;10452880;28;20033;-74
2020/12/11 15:54:19;;;;;;;54.95;23.75;;;;;;;5.72;100.00;93803.31;10458835;28;20095;-74
2020/12/11 15:59:20;;;;;;;50.28;23.45;;;;;;;5.64;100.00;93815.28;10464465;28;20025;-73
2020/12/11 16:04:21;;;;;;;42.25;22.25;;;;;;;5.54;100.00;93815.28;10454235;28;20181;-74
2020/12/11 16:09:22;;;;;;;43.25;21.27;;;;;;;5.51;100.00;93805.13;10447783;28;20523;-74
2020/12/11 16:14:26;;;;;;;40.07;21.87;;;;;;;5.53;100.00;93807.53;10480694;28;20836;-74
2020/12/11 16:19:27;;;;;;;36.55;20.73;;;;;;;5.46;100.00;93805.13;10491118;28;20338;-74
2020/12/11 16:24:27;;;;;;;43.45;20.85;;;;;;;5.36;100.00;93808.56;10529214;28;20111;-75
2020/12/11 16:29:27;;;;;;;45.85;23.58;;;;;;;5.37;100.00;93810.19;10502139;28;20040;-75
2020/12/11 16:34:28;;;;;;;57.30;25.87;;;;;;;5.36;100.00;93808.56;10488383;28;20039;-75
2020/12/11 16:39:29;;;;;;;50.35;23.50;;;;;;;5.29;100.00;93810.69;10488089;28;20032;-75
2020/12/11 16:44:56;;;;;;;51.83;24.88;;;;;;;5.23;100.00;93801.88;10488139;28;20047;-75
2020/12/11 16:49:54;;;;;;;55.90;23.98;;;;;;;5.23;100.00;93803.72;10487778;28;20143;-75
2020/12/11 16:54:55;;;;;;;51.17;24.40;;;;;;;5.13;100.00;93801.84;10486723;28;20043;-75
2020/12/11 17:00:02;;;;;;;57.65;28.27;;;;;;;5.10;100.00;93810.34;10488743;28;20040;-77
2020/12/11 17:10:09;;;;;;;45.38;20.40;;;;;;;4.80;100.00;93795.88;10486975;28;20066;-74
2020/12/11 17:15:10;;;;;;;42.88;21.00;;;;;;;4.59;100.00;93802.94;10492418;28;20058;-75
2020/12/11 17:20:12;;;;;;;47.97;23.25;;;;;;;4.46;100.00;93809.53;10528615;28;20350;-75
2020/12/11 17:25:13;;;;;;;41.85;20.23;;;;;;;4.55;100.00;93804.53;10527820;28;20048;-75
2020/12/11 17:35:14;;;;;;;37.28;17.02;;;;;;;4.64;100.00;93804.84;10511381;28;20043;-75
2020/12/11 17:40:15;;;;;;;37.50;14.18;;;;;;;4.60;100.00;93805.38;10468856;28;20040;-74
2020/12/11 17:45:15;;;;;;;29.55;12.40;;;;;;;4.50;100.00;93799.97;10486786;28;20044;-74
2020/12/11 17:50:19;;;;;;;26.75;13.23;;;;;;;4.46;100.00;93796.22;10486842;28;20076;-74
2020/12/11 17:55:19;;;;;;;24.60;13.00;;;;;;;4.47;100.00;93794.41;10519844;28;20556;-74
2020/12/11 18:00:20;;;;;;;20.40;10.77;;;;;;;4.50;100.00;93792.00;10524380;28;20032;-74
2020/12/11 18:05:24;;;;;;;23.17;11.30;;;;;;;4.62;100.00;93791.81;10528901;28;20055;-74
2020/12/11 18:10:27;;;;;;;26.02;12.23;;;;;;;4.65;100.00;93783.31;10509001;28;20032;-74
2020/12/11 18:15:27;;;;;;;20.40;9.93;;;;;;;4.75;100.00;93790.53;10482303;28;20050;-75
2020/12/11 18:20:28;;;;;;;20.85;9.70;;;;;;;4.75;100.00;93796.63;10488686;28;20044;-74
2020/12/11 18:25:31;;;;;;;18.98;8.95;;;;;;;4.76;100.00;93794.81;10528151;28;20048;-75
2020/12/11 18:30:36;;;;;;;23.50;8.77;;;;;;;4.73;100.00;93793.44;10529661;28;20205;-75
2020/12/11 18:35:36;;;;;;;23.45;10.05;;;;;;;4.70;100.00;93791.31;10527856;28;20840;-75
2020/12/11 18:40:37;;;;;;;22.23;9.43;;;;;;;4.71;100.00;93784.13;10535382;28;20035;-75
2020/12/11 18:45:37;;;;;;;21.98;9.57;;;;;;;4.78;100.00;93790.00;10532980;28;20043;-74
2020/12/11 18:50:38;;;;;;;23.60;8.52;;;;;;;4.85;100.00;93800.41;10513940;28;20154;-75
2020/12/11 18:56:16;;;;;;;17.55;9.07;;;;;;;4.94;100.00;93793.53;10510913;28;20491;-75
2020/12/11 19:01:06;;;;;;;20.77;7.88;;;;;;;4.85;100.00;93790.56;10513205;28;20527;-74
2020/12/11 19:06:07;;;;;;;21.48;8.80;;;;;;;4.89;100.00;93786.31;10505775;28;20034;-74
2020/12/11 19:11:08;;;;;;;18.05;10.02;;;;;;;4.89;100.00;93794.31;10502297;28;20133;-74
2020/12/11 19:16:08;;;;;;;22.75;10.85;;;;;;;4.83;100.00;93790.03;10506853;28;20119;-74
2020/12/11 19:21:10;;;;;;;34.88;15.85;;;;;;;4.79;100.00;93788.94;10488333;28;20033;-74
2020/12/11 19:26:16;;;;;;;23.20;9.18;;;;;;;4.68;100.00;93787.31;10487037;28;20107;-74
2020/12/11 19:31:16;;;;;;;21.83;10.43;;;;;;;4.61;100.00;93792.84;10462664;28;20111;-74
2020/12/11 19:36:17;;;;;;;19.83;10.35;;;;;;;4.40;100.00;93790.09;10449959;28;20404;-74
2020/12/11 19:41:17;;;;;;;18.52;9.25;;;;;;;4.21;100.00;93791.56;10454890;28;20526;-74
2020/12/11 19:46:18;;;;;;;20.37;8.60;;;;;;;4.11;100.00;93784.31;10476437;28;20060;-74
2020/12/11 19:51:22;;;;;;;15.52;8.48;;;;;;;4.04;100.00;93787.19;10481875;28;20290;-75
2020/12/11 19:56:22;;;;;;;16.98;8.05;;;;;;;4.04;100.00;93787.19;10451811;28;20033;-74
2020/12/11 20:01:22;;;;;;;19.92;9.77;;;;;;;4.13;100.00;93792.03;10447172;28;20531;-74
2020/12/11 20:06:35;;;;;;;14.65;7.70;;;;;;;4.20;100.00;93785.47;10458432;28;20040;-74
2020/12/11 20:11:36;;;;;;;19.23;9.93;;;;;;;4.10;100.00;93777.41;10466307;28;20036;-74
2020/12/11 20:16:41;;;;;;;18.02;9.95;;;;;;;4.14;100.00;93773.16;10501382;28;20105;-74
2020/12/11 20:21:42;;;;;;;23.92;12.10;;;;;;;4.09;100.00;93776.59;10494335;28;20040;-74
2020/12/11 20:26:42;;;;;;;32.10;12.30;;;;;;;4.02;100.00;93770.72;10500114;28;20041;-74
2020/12/11 20:31:45;;;;;;;26.17;12.35;;;;;;;3.93;100.00;93774.91;10517263;28;20074;-74
2020/12/11 20:36:51;;;;;;;24.08;12.85;;;;;;;3.67;100.00;93766.75;10526279;28;20108;-73
2020/12/11 20:41:55;;;;;;;32.08;15.77;;;;;;;3.65;100.00;93776.03;10509190;28;20036;-75
2020/12/11 20:46:56;;;;;;;42.08;14.30;;;;;;;3.63;100.00;93765.66;10485636;28;20037;-74
2020/12/11 20:51:56;;;;;;;40.90;16.38;;;;;;;3.58;100.00;93753.09;10485737;28;20794;-74
2020/12/11 20:56:56;;;;;;;36.77;17.30;;;;;;;3.64;100.00;93755.81;10490560;28;20023;-74
2020/12/11 21:01:57;;;;;;;42.58;19.73;;;;;;;3.57;100.00;93751.53;10517622;28;20344;-74
2020/12/11 21:06:58;;;;;;;42.58;20.10;;;;;;;3.33;100.00;93752.91;10506835;28;20592;-74
2020/12/11 21:11:58;;;;;;;26.20;14.43;;;;;;;3.40;100.00;93743.69;10516822;28;20032;-74
2020/12/11 21:16:59;;;;;;;41.65;19.52;;;;;;;3.46;100.00;93746.38;10496915;28;20511;-74
2020/12/11 21:22:04;;;;;;;20.23;11.57;;;;;;;3.55;100.00;93731.56;10522634;28;20032;-74
2020/12/11 21:27:05;;;;;;;35.60;18.13;;;;;;;3.66;100.00;93735.91;10522019;28;20032;-75
2020/12/11 21:32:08;;;;;;;22.77;12.00;;;;;;;3.72;100.00;93729.56;10570187;28;20024;-75
2020/12/11 21:37:08;;;;;;;19.65;10.50;;;;;;;3.72;100.00;93718.16;10531305;28;20046;-75
2020/12/11 21:42:09;;;;;;;25.13;10.90;;;;;;;3.83;100.00;93717.16;10533014;28;20038;-74
2020/12/11 21:47:09;;;;;;;20.58;10.98;;;;;;;3.91;100.00;93716.69;10516514;28;20692;-75
2020/12/11 21:52:10;;;;;;;20.50;12.13;;;;;;;4.08;100.00;93705.88;10531603;28;20040;-74
2020/12/11 21:57:10;;;;;;;26.33;10.07;;;;;;;4.09;100.00;93704.81;10510091;28;20032;-74
2020/12/11 22:02:11;;;;;;;20.87;11.90;;;;;;;4.06;100.00;93697.38;10524990;28;20352;-74
2020/12/11 22:07:11;;;;;;;24.48;12.85;;;;;;;4.15;100.00;93692.34;10508498;28;20293;-74
2020/12/11 22:12:12;;;;;;;35.97;14.30;;;;;;;4.30;100.00;93690.81;10526449;28;20406;-75
2020/12/11 22:17:13;;;;;;;27.08;12.88;;;;;;;4.40;100.00;93691.66;10503039;28;20542;-74
2020/12/11 22:22:14;;;;;;;19.10;11.30;;;;;;;4.50;100.00;93688.22;10492075;28;20051;-74
2020/12/11 22:27:15;;;;;;;22.23;10.63;;;;;;;4.56;100.00;93671.25;10490872;28;20021;-74
2020/12/11 22:32:15;;;;;;;14.40;10.02;;;;;;;4.68;100.00;93667.53;10516217;28;20032;-74
2020/12/11 22:37:18;;;;;;;18.95;10.43;;;;;;;4.76;100.00;93667.81;10515961;28;20028;-74
2020/12/11 22:42:19;;;;;;;24.65;10.82;;;;;;;4.74;100.00;93653.97;10498850;28;20036;-74
2020/12/11 22:47:19;;;;;;;22.10;11.93;;;;;;;4.67;100.00;93650.75;10532252;28;20036;-74
2020/12/11 22:52:20;;;;;;;18.47;10.07;;;;;;;4.76;100.00;93643.09;10529963;28;20028;-74
2020/12/11 22:57:20;;;;;;;19.13;10.02;;;;;;;4.84;100.00;93633.75;10528379;28;20070;-74
2020/12/11 23:02:21;;;;;;;22.50;10.70;;;;;;;4.94;100.00;93633.78;10503014;28;20040;-74
2020/12/11 23:07:21;;;;;;;21.33;10.60;;;;;;;4.90;100.00;93628.19;10485778;28;20068;-74
2020/12/11 23:12:22;;;;;;;22.00;11.47;;;;;;;4.97;100.00;93615.41;10486442;28;20037;-76
2020/12/11 23:17:22;;;;;;;16.65;9.88;;;;;;;4.93;100.00;93619.66;10486826;28;20055;-74
2020/12/11 23:22:23;;;;;;;19.52;11.07;;;;;;;4.92;100.00;93619.94;10487785;28;20499;-74
2020/12/11 23:27:24;;;;;;;21.65;10.40;;;;;;;4.83;100.00;93621.50;10485614;28;20090;-74
2020/12/11 23:32:25;;;;;;;19.17;11.43;;;;;;;4.86;100.00;93615.69;10534726;28;20070;-74
2020/12/11 23:37:25;;;;;;;17.10;10.93;;;;;;;4.84;100.00;93607.13;10572613;28;20134;-74
2020/12/11 23:42:25;;;;;;;20.60;10.93;;;;;;;4.87;100.00;93602.09;10571613;28;20155;-74
2020/12/11 23:47:26;;;;;;;22.80;11.50;;;;;;;4.86;100.00;93599.72;10531384;28;20851;-74
2020/12/11 23:52:30;;;;;;;22.98;11.40;;;;;;;4.66;100.00;93589.81;10530422;28;20657;-75
2020/12/11 23:57:34;;;;;;;21.13;11.48;;;;;;;4.77;100.00;93591.44;10502146;28;20035;-75
